createdAt,value
2022-10-11T00:02:34.352Z,56.31
2022-10-11T00:05:14.775Z,55.48
2022-10-11T00:07:54.918Z,55.69
2022-10-11T00:10:35.182Z,55.72
2022-10-11T00:13:15.446Z,55.34
2022-10-11T00:15:55.988Z,54.48
2022-10-11T00:18:38.915Z,54.62
2022-10-11T00:21:25.687Z,54.12
2022-10-11T00:24:07.715Z,54.72
2022-10-11T00:26:48.380Z,54.23
2022-10-11T00:29:28.598Z,53.80
2022-10-11T00:32:08.818Z,54.12
2022-10-11T00:34:49.158Z,54.18
2022-10-11T00:37:29.334Z,53.94
2022-10-11T00:40:15.418Z,54.46
2022-10-11T00:42:56.239Z,54.11
2022-10-11T00:46:05.163Z,55.41
2022-10-11T00:48:49.904Z,54.21
2022-10-11T00:51:42.494Z,54.16
2022-10-11T00:54:26.502Z,53.84
2022-10-11T00:57:11.379Z,54.29
2022-10-11T00:59:55.101Z,53.86
2022-10-11T01:02:35.194Z,53.75
2022-10-11T01:05:29.174Z,53.70
2022-10-11T01:08:09.862Z,54.00
2022-10-11T01:10:57.488Z,54.56
2022-10-11T01:13:55.075Z,55.23
2022-10-11T01:16:45.013Z,54.50
2022-10-11T01:19:44.204Z,55.00
2022-10-11T01:22:48.707Z,55.59
2022-10-11T01:25:37.424Z,54.61
2022-10-11T01:28:34.834Z,55.25
2022-10-11T01:31:25.964Z,55.22
2022-10-11T01:34:11.425Z,54.77
2022-10-11T01:37:00.018Z,55.14
2022-10-11T01:39:47.368Z,54.67
2022-10-11T01:42:29.425Z,55.89
2022-10-11T01:45:16.248Z,55.69
2022-10-11T01:48:05.908Z,56.36
2022-10-11T01:50:49.033Z,55.36
2022-10-11T01:53:51.730Z,56.14
2022-10-11T01:56:47.085Z,56.24
2022-10-11T01:59:41.968Z,57.86
2022-10-11T02:02:33.803Z,59.79
2022-10-11T02:05:25.000Z,58.47
2022-10-11T02:08:15.486Z,59.80
2022-10-11T02:11:04.437Z,60.18
2022-10-11T02:13:56.070Z,60.11
2022-10-11T02:16:41.874Z,59.62
2022-10-11T02:19:27.538Z,58.21
2022-10-11T02:22:12.949Z,58.10
2022-10-11T02:24:58.374Z,56.73
2022-10-11T02:27:43.531Z,56.84
2022-10-11T02:30:26.908Z,57.32
2022-10-11T02:33:12.319Z,57.31
2022-10-11T02:36:09.027Z,57.25
2022-10-11T02:38:56.085Z,56.79
2022-10-11T02:41:40.504Z,56.47
2022-10-11T02:44:27.829Z,56.95
2022-10-11T02:47:09.507Z,56.21
2022-10-11T02:49:50.584Z,56.92
2022-10-11T02:52:30.760Z,56.63
2022-10-11T02:55:12.801Z,56.14
2022-10-11T02:57:52.830Z,57.09
2022-10-11T03:00:33.376Z,56.00
2022-10-11T03:03:13.404Z,55.68
2022-10-11T03:05:59.298Z,56.09
2022-10-11T03:08:40.567Z,55.47
2022-10-11T03:11:20.503Z,56.03
2022-10-11T03:14:02.975Z,55.96
2022-10-11T03:16:43.139Z,55.62
2022-10-11T03:19:23.420Z,55.65
2022-10-11T03:22:03.638Z,55.62
2022-10-11T03:24:43.938Z,55.58
2022-10-11T03:27:24.246Z,55.60
2022-10-11T03:30:05.161Z,55.67
2022-10-11T03:32:46.746Z,55.62
2022-10-11T03:35:26.742Z,56.01
2022-10-11T03:38:09.130Z,56.04
2022-10-11T03:40:53.445Z,56.02
2022-10-11T03:43:33.859Z,55.78
2022-10-11T03:46:14.098Z,55.87
2022-10-11T03:48:54.327Z,55.94
2022-10-11T03:51:34.742Z,55.71
2022-10-11T03:54:14.883Z,55.63
2022-10-11T03:56:55.059Z,55.66
2022-10-11T03:59:35.331Z,55.58
2022-10-11T04:02:16.014Z,55.70
2022-10-11T04:04:55.828Z,56.72
2022-10-11T04:07:36.376Z,55.82
2022-10-11T04:10:16.414Z,55.96
2022-10-11T04:12:56.622Z,56.62
2022-10-11T04:15:37.869Z,56.14
2022-10-11T04:18:18.860Z,55.96
2022-10-11T04:20:59.193Z,56.73
2022-10-11T04:23:39.366Z,56.74
2022-10-11T04:26:19.534Z,56.65
2022-10-11T04:28:59.820Z,56.40
2022-10-11T04:31:40.141Z,56.09
2022-10-11T04:34:20.469Z,56.33
2022-10-11T04:37:02.849Z,56.13
2022-10-11T04:39:44.970Z,56.10
2022-10-11T04:42:25.247Z,56.31
2022-10-11T04:45:06.300Z,56.20
2022-10-11T04:47:47.178Z,56.11
2022-10-11T04:50:27.751Z,56.46
2022-10-11T04:53:10.954Z,56.43
2022-10-11T04:55:58.884Z,56.60
2022-10-11T04:58:41.715Z,56.05
2022-10-11T05:01:23.005Z,56.09
2022-10-11T05:04:03.227Z,56.01
2022-10-11T05:06:43.585Z,55.98
2022-10-11T05:09:23.720Z,56.03
2022-10-11T05:12:04.309Z,56.15
2022-10-11T05:14:44.477Z,56.12
2022-10-11T05:17:24.700Z,56.16
2022-10-11T05:20:08.133Z,55.99
2022-10-11T05:22:48.714Z,56.06
2022-10-11T05:25:28.846Z,57.28
2022-10-11T05:28:09.287Z,56.48
2022-10-11T05:30:49.612Z,56.42
2022-10-11T05:33:29.815Z,56.14
2022-10-11T05:36:10.690Z,56.18
2022-10-11T05:38:51.785Z,56.20
2022-10-11T05:41:32.145Z,56.30
2022-10-11T05:44:12.404Z,56.33
2022-10-11T05:46:52.645Z,56.25
2022-10-11T05:49:32.989Z,56.26
2022-10-11T05:52:13.654Z,56.00
2022-10-11T05:54:53.515Z,55.99
2022-10-11T05:57:33.758Z,56.43
2022-10-11T06:00:15.080Z,56.43
2022-10-11T06:02:57.740Z,56.06
2022-10-11T06:05:38.601Z,56.09
2022-10-11T06:08:19.913Z,55.88
2022-10-11T06:11:00.370Z,55.94
2022-10-11T06:13:40.830Z,56.03
2022-10-11T06:16:20.987Z,55.92
2022-10-11T06:19:01.002Z,55.96
2022-10-11T06:21:41.266Z,55.90
2022-10-11T06:24:25.444Z,55.75
2022-10-11T06:27:08.619Z,55.51
2022-10-11T06:29:49.201Z,55.75
2022-10-11T06:32:30.478Z,55.91
2022-10-11T06:35:10.924Z,55.72
2022-10-11T06:37:51.404Z,55.54
2022-10-11T06:40:34.300Z,55.89
2022-10-11T06:43:14.459Z,56.08
2022-10-11T06:46:00.125Z,56.87
2022-10-11T06:48:43.375Z,55.78
2022-10-11T06:51:27.206Z,55.55
2022-10-11T06:54:08.782Z,55.48
2022-10-11T06:56:49.330Z,55.58
2022-10-11T06:59:30.006Z,55.46
2022-10-11T07:02:11.900Z,56.49
2022-10-11T07:04:53.268Z,56.46
2022-10-11T07:07:33.830Z,56.00
2022-10-11T07:10:13.493Z,56.21
2022-10-11T07:12:56.610Z,56.00
2022-10-11T07:15:41.175Z,56.74
2022-10-11T07:18:22.164Z,56.41
2022-10-11T07:21:06.079Z,56.37
2022-10-11T07:23:46.239Z,56.07
2022-10-11T07:26:26.398Z,56.10
2022-10-11T07:29:07.141Z,56.06
2022-10-11T07:31:47.069Z,55.50
2022-10-11T07:34:27.332Z,55.33
2022-10-11T07:37:07.485Z,55.15
2022-10-11T07:39:49.694Z,55.29
2022-10-11T07:42:29.449Z,55.72
2022-10-11T07:45:10.426Z,55.16
2022-10-11T07:47:51.727Z,54.78
2022-10-11T07:50:32.024Z,55.26
2022-10-11T07:53:12.280Z,54.98
2022-10-11T07:55:52.343Z,54.73
2022-10-11T07:58:32.892Z,54.61
2022-10-11T08:01:14.651Z,54.57
2022-10-11T08:03:56.806Z,54.79
2022-10-11T08:06:37.358Z,54.78
2022-10-11T08:09:18.638Z,54.54
2022-10-11T08:11:58.881Z,54.40
2022-10-11T08:14:41.478Z,54.62
2022-10-11T08:17:22.780Z,54.59
2022-10-11T08:20:03.012Z,54.48
2022-10-11T08:22:43.061Z,54.11
2022-10-11T08:25:25.569Z,53.80
2022-10-11T08:28:06.046Z,53.59
2022-10-11T08:30:50.812Z,53.18
2022-10-11T08:33:31.248Z,53.10
2022-10-11T08:36:11.937Z,52.98
2022-10-11T08:38:53.105Z,52.91
2022-10-11T08:41:42.788Z,51.98
2022-10-11T08:44:58.690Z,51.74
2022-10-11T08:47:41.845Z,51.94
2022-10-11T08:50:24.461Z,51.92
2022-10-11T08:53:08.921Z,51.74
2022-10-11T08:55:52.446Z,51.63
2022-10-11T08:58:40.284Z,51.28
2022-10-11T09:01:24.447Z,51.31
2022-10-11T09:04:06.108Z,50.89
2022-10-11T09:06:55.855Z,50.53
2022-10-11T09:09:55.676Z,50.14
2022-10-11T09:12:49.645Z,49.44
2022-10-11T09:15:35.729Z,49.99
2022-10-11T09:18:41.254Z,48.16
2022-10-11T09:21:32.374Z,48.84
2022-10-11T09:24:34.311Z,48.46
2022-10-11T09:27:29.100Z,49.24
2022-10-11T09:30:19.916Z,49.85
2022-10-11T09:33:11.539Z,48.53
2022-10-11T09:35:54.003Z,49.89
2022-10-11T09:38:42.143Z,48.00
2022-10-11T09:41:18.513Z,48.00
2022-10-11T09:43:55.998Z,49.63
2022-10-11T09:46:31.970Z,49.94
2022-10-11T09:49:03.676Z,49.48
2022-10-11T09:51:33.574Z,48.86
2022-10-11T09:54:05.520Z,49.79
2022-10-11T09:56:41.054Z,49.60
2022-10-11T09:59:18.265Z,48.48
2022-10-11T10:01:47.076Z,49.13
2022-10-11T10:04:18.189Z,49.01
2022-10-11T10:06:46.677Z,49.00
2022-10-11T10:09:31.174Z,49.15
2022-10-11T10:11:59.705Z,46.08
2022-10-11T10:14:30.340Z,49.30
2022-10-11T10:17:04.657Z,48.14
2022-10-11T10:19:44.656Z,45.90
2022-10-11T10:22:19.847Z,47.46
2022-10-11T10:24:51.306Z,44.83
2022-10-11T10:27:22.161Z,45.92
2022-10-11T10:30:14.474Z,47.84
2022-10-11T10:32:50.930Z,44.12
2022-10-11T10:35:33.246Z,44.77
2022-10-11T10:38:16.571Z,43.79
2022-10-11T10:40:50.282Z,43.30
2022-10-11T10:43:20.202Z,45.33
2022-10-11T10:46:24.698Z,47.16
2022-10-11T10:51:57.403Z,44.89
2022-10-11T10:54:40.397Z,43.88
2022-10-11T10:57:19.131Z,43.62
2022-10-11T10:59:59.795Z,42.93
2022-10-11T11:02:40.577Z,44.76
2022-10-11T11:05:23.089Z,44.43
2022-10-11T11:10:48.293Z,44.45
2022-10-11T11:13:28.657Z,43.64
2022-10-11T11:16:06.435Z,41.48
2022-10-11T11:18:43.734Z,41.21
2022-10-11T11:21:25.815Z,42.98
2022-10-11T11:24:03.935Z,39.84
2022-10-11T11:26:44.189Z,42.34
2022-10-11T11:29:28.932Z,42.46
2022-10-11T11:32:17.788Z,42.21
2022-10-11T11:34:50.674Z,42.64
2022-10-11T11:37:27.030Z,43.88
2022-10-11T11:40:00.662Z,43.51
2022-10-11T11:42:36.900Z,44.27
2022-10-11T11:45:19.914Z,41.51
2022-10-11T11:47:54.074Z,41.73
2022-10-11T11:50:27.921Z,43.94
2022-10-11T11:53:04.206Z,44.67
2022-10-11T11:55:39.961Z,42.18
2022-10-11T11:58:23.089Z,41.71
2022-10-11T12:00:59.461Z,41.62
2022-10-11T12:03:32.459Z,42.72
2022-10-11T12:06:24.073Z,43.10
2022-10-11T12:09:03.629Z,39.01
2022-10-11T12:11:53.678Z,40.17
2022-10-11T12:14:38.841Z,38.41
2022-10-11T12:17:16.735Z,39.44
2022-10-11T12:20:13.351Z,40.46
2022-10-11T12:22:58.331Z,41.58
2022-10-11T12:25:43.517Z,41.53
2022-10-11T12:32:56.423Z,41.22
2022-10-11T12:36:25.186Z,41.16
2022-10-11T12:39:32.546Z,43.06
2022-10-11T12:42:31.385Z,42.08
2022-10-11T12:45:40.220Z,43.96
2022-10-11T12:52:01.877Z,41.23
2022-10-11T12:55:08.453Z,43.32
2022-10-11T12:57:57.345Z,39.34
2022-10-11T13:00:30.075Z,39.11
2022-10-11T13:03:00.607Z,43.04
2022-10-11T13:05:36.153Z,42.37
2022-10-11T13:08:18.908Z,39.98
2022-10-11T13:10:50.239Z,38.09
2022-10-11T13:13:24.238Z,42.36
2022-10-11T13:15:55.253Z,40.15
2022-10-11T13:18:25.741Z,41.53
2022-10-11T13:20:55.827Z,41.39
2022-10-11T13:23:27.284Z,41.02
2022-10-11T13:25:57.707Z,41.61
2022-10-11T13:28:36.443Z,41.84
2022-10-11T13:31:06.509Z,42.12
2022-10-11T13:33:39.595Z,41.77
2022-10-11T13:36:18.401Z,41.51
2022-10-11T13:38:53.744Z,39.94
2022-10-11T13:41:22.659Z,41.04
2022-10-11T13:43:51.212Z,41.82
2022-10-11T13:46:23.398Z,41.61
2022-10-11T13:49:00.393Z,41.53
2022-10-11T13:51:33.366Z,39.53
2022-10-11T13:54:04.631Z,40.14
2022-10-11T13:56:36.029Z,41.68
2022-10-11T13:59:04.952Z,41.66
2022-10-11T14:01:39.428Z,41.76
2022-10-11T14:04:11.292Z,40.11
2022-10-11T14:06:45.043Z,41.65
2022-10-11T14:09:21.310Z,41.46
2022-10-11T14:11:50.362Z,40.55
2022-10-11T14:14:41.717Z,41.64
2022-10-11T14:17:16.159Z,38.96
2022-10-11T14:19:46.115Z,40.76
2022-10-11T14:22:17.750Z,41.29
2022-10-11T14:24:49.022Z,41.37
2022-10-11T14:27:21.546Z,41.16
2022-10-11T14:30:06.378Z,41.45
2022-10-11T14:32:39.796Z,41.54
2022-10-11T14:35:16.738Z,41.50
2022-10-11T14:37:46.609Z,40.81
2022-10-11T14:40:18.054Z,41.26
2022-10-11T14:42:46.757Z,41.09
2022-10-11T14:45:15.439Z,41.32
2022-10-11T14:47:43.858Z,41.06
2022-10-11T14:50:27.508Z,41.24
2022-10-11T14:52:58.133Z,39.21
2022-10-11T14:55:26.836Z,41.11
2022-10-11T14:57:56.348Z,41.32
2022-10-11T15:00:27.453Z,41.25
2022-10-11T15:02:56.900Z,41.24
2022-10-11T15:05:33.497Z,41.16
2022-10-11T15:08:04.824Z,41.10
2022-10-11T15:10:37.399Z,41.06
2022-10-11T15:13:07.906Z,40.22
2022-10-11T15:15:38.205Z,41.07
2022-10-11T15:18:08.534Z,40.95
2022-10-11T15:20:39.477Z,41.06
2022-10-11T15:23:10.499Z,40.33
2022-10-11T15:25:40.752Z,40.96
2022-10-11T15:28:15.655Z,41.09
2022-10-11T15:30:44.368Z,41.19
2022-10-11T15:33:12.546Z,41.08
2022-10-11T15:35:40.684Z,41.14
2022-10-11T15:38:17.662Z,40.80
2022-10-11T15:40:46.348Z,39.94
2022-10-11T15:43:15.144Z,41.17
2022-10-11T15:45:43.630Z,41.11
2022-10-11T15:48:15.554Z,41.27
2022-10-11T15:50:44.099Z,41.09
2022-10-11T15:53:15.664Z,41.46
2022-10-11T15:55:46.545Z,41.43
2022-10-11T15:58:16.041Z,41.48
2022-10-11T16:00:45.841Z,41.58
2022-10-11T16:03:16.441Z,41.83
2022-10-11T16:05:45.027Z,42.06
2022-10-11T16:08:15.465Z,42.22
2022-10-11T16:10:44.920Z,42.29
2022-10-11T16:13:13.613Z,42.45
2022-10-11T16:15:43.525Z,42.45
2022-10-11T16:18:13.989Z,42.59
2022-10-11T16:20:45.059Z,42.68
2022-10-11T16:23:15.384Z,42.84
2022-10-11T16:25:44.225Z,42.96
2022-10-11T16:28:12.695Z,43.10
2022-10-11T16:30:43.203Z,43.24
2022-10-11T16:33:11.785Z,43.35
2022-10-11T16:35:42.601Z,43.41
2022-10-11T16:38:11.524Z,43.50
2022-10-11T16:40:42.898Z,43.54
2022-10-11T16:43:11.737Z,43.54
2022-10-11T16:45:40.151Z,43.78
2022-10-11T16:48:08.584Z,43.85
2022-10-11T16:50:39.644Z,44.09
2022-10-11T16:53:08.294Z,44.29
2022-10-11T16:55:36.417Z,44.50
2022-10-11T16:58:05.907Z,44.50
2022-10-11T17:00:34.497Z,44.65
2022-10-11T17:03:02.758Z,44.57
2022-10-11T17:05:30.833Z,44.62
2022-10-11T17:07:59.214Z,44.60
2022-10-11T17:10:39.449Z,44.66
2022-10-11T17:13:09.418Z,44.77
2022-10-11T17:15:39.691Z,44.79
2022-10-11T17:18:08.179Z,44.81
2022-10-11T17:20:36.356Z,44.77
2022-10-11T17:23:04.637Z,45.12
2022-10-11T17:25:33.021Z,45.22
2022-10-11T17:28:01.156Z,45.24
2022-10-11T17:30:30.736Z,45.39
2022-10-11T17:32:59.256Z,45.48
2022-10-11T17:35:27.531Z,45.55
2022-10-11T17:37:55.724Z,45.74
2022-10-11T17:40:24.367Z,45.89
2022-10-11T17:42:53.363Z,45.92
2022-10-11T17:45:22.705Z,45.97
2022-10-11T17:47:52.525Z,45.89
2022-10-11T17:50:20.918Z,46.09
2022-10-11T17:52:49.143Z,46.14
2022-10-11T17:55:17.834Z,45.96
2022-10-11T17:57:46.427Z,46.28
2022-10-11T18:00:16.083Z,46.27
2022-10-11T18:02:44.544Z,46.40
2022-10-11T18:05:14.694Z,46.41
2022-10-11T18:07:43.138Z,46.56
2022-10-11T18:10:11.608Z,46.55
2022-10-11T18:12:39.888Z,46.82
2022-10-11T18:15:09.557Z,47.07
2022-10-11T18:17:38.088Z,47.08
2022-10-11T18:20:06.876Z,47.31
2022-10-11T18:22:36.406Z,47.04
2022-10-11T18:25:05.389Z,46.92
2022-10-11T18:27:33.573Z,46.86
2022-10-11T18:30:01.851Z,46.87
2022-10-11T18:32:30.291Z,46.82
2022-10-11T18:34:59.787Z,46.82
2022-10-11T18:37:28.319Z,47.01
2022-10-11T18:39:58.163Z,47.43
2022-10-11T18:42:26.430Z,47.60
2022-10-11T18:44:55.328Z,47.53
2022-10-11T18:47:23.850Z,47.53
2022-10-11T18:49:51.970Z,47.64
2022-10-11T18:52:20.083Z,47.86
2022-10-11T18:54:48.511Z,48.00
2022-10-11T18:57:18.237Z,48.08
2022-10-11T18:59:48.701Z,48.17
2022-10-11T19:02:17.488Z,48.12
2022-10-11T19:04:45.807Z,47.92
2022-10-11T19:07:14.018Z,47.95
2022-10-11T19:09:43.324Z,47.83
2022-10-11T19:12:11.642Z,47.81
2022-10-11T19:14:41.421Z,48.17
2022-10-11T19:17:12.300Z,48.85
2022-10-11T19:19:40.829Z,48.15
2022-10-11T19:22:09.064Z,48.28
2022-10-11T19:24:37.594Z,48.41
2022-10-11T19:27:05.836Z,48.64
2022-10-11T19:29:34.526Z,48.78
2022-10-11T19:32:04.561Z,48.80
2022-10-11T19:34:33.001Z,48.72
2022-10-11T19:37:03.253Z,49.00
2022-10-11T19:39:32.159Z,48.93
2022-10-11T19:42:01.590Z,49.46
2022-10-11T19:44:29.751Z,49.62
2022-10-11T19:47:02.703Z,49.37
2022-10-11T19:49:34.660Z,49.42
2022-10-11T19:52:03.486Z,49.50
2022-10-11T19:54:31.980Z,49.64
2022-10-11T19:57:00.304Z,49.39
2022-10-11T19:59:28.727Z,49.86
2022-10-11T20:01:59.914Z,49.63
2022-10-11T20:07:18.623Z,49.93
2022-10-11T20:09:47.262Z,50.05
2022-10-11T20:12:15.529Z,49.79
2022-10-11T20:14:43.754Z,49.76
2022-10-11T20:17:12.347Z,50.65
2022-10-11T20:19:41.192Z,51.07
2022-10-11T20:22:09.647Z,51.56
2022-10-11T20:24:39.408Z,51.54
2022-10-11T20:27:07.979Z,51.84
2022-10-11T20:29:36.262Z,51.70
2022-10-11T20:32:04.872Z,51.62
2022-10-11T20:34:33.338Z,51.16
2022-10-11T20:37:01.437Z,50.94
2022-10-11T20:39:30.483Z,51.10
2022-10-11T20:41:59.923Z,51.10
2022-10-11T20:44:28.124Z,50.97
2022-10-11T20:47:00.284Z,50.98
2022-10-11T20:49:31.242Z,50.98
2022-10-11T20:51:59.652Z,50.96
2022-10-11T20:54:29.790Z,51.04
2022-10-11T20:56:58.034Z,50.92
2022-10-11T20:59:28.634Z,51.42
2022-10-11T21:01:56.887Z,51.18
2022-10-11T21:04:25.008Z,50.91
2022-10-11T21:06:53.603Z,51.80
2022-10-11T21:09:21.775Z,51.82
2022-10-11T21:11:49.894Z,51.87
2022-10-11T21:14:18.344Z,51.31
2022-10-11T21:16:47.853Z,51.18
2022-10-11T21:19:16.553Z,51.07
2022-10-11T21:21:50.900Z,51.43
2022-10-11T21:24:21.390Z,51.46
2022-10-11T21:26:49.870Z,51.41
2022-10-11T21:29:18.526Z,51.43
2022-10-11T21:31:48.063Z,51.50
2022-10-11T21:34:16.754Z,51.76
2022-10-11T21:36:44.942Z,51.86
2022-10-11T21:39:13.094Z,51.90
2022-10-11T21:41:42.314Z,51.77
2022-10-11T21:44:10.904Z,51.40
2022-10-11T21:47:04.803Z,51.73
2022-10-11T21:49:31.842Z,51.92
2022-10-11T21:52:00.005Z,51.90
2022-10-11T21:54:28.698Z,51.66
2022-10-11T21:56:56.812Z,51.70
2022-10-11T21:59:24.954Z,51.94
2022-10-11T22:01:56.929Z,52.04
2022-10-11T22:04:27.870Z,51.83
2022-10-11T22:06:57.476Z,51.72
2022-10-11T22:09:27.677Z,52.20
2022-10-11T22:11:58.074Z,52.49
2022-10-11T22:14:26.844Z,51.85
2022-10-11T22:16:55.031Z,52.71
2022-10-11T22:19:23.811Z,53.07
2022-10-11T22:21:52.306Z,53.15
2022-10-11T22:24:21.793Z,52.91
2022-10-11T22:26:50.195Z,53.79
2022-10-11T22:29:18.474Z,53.41
2022-10-11T22:31:46.653Z,53.11
2022-10-11T22:34:15.217Z,52.33
2022-10-11T22:36:43.436Z,52.51
2022-10-11T22:39:11.722Z,52.38
2022-10-11T22:41:41.801Z,52.25
2022-10-11T22:44:09.986Z,52.54
2022-10-11T22:46:38.200Z,52.77
2022-10-11T22:49:06.965Z,52.38
2022-10-11T22:51:35.142Z,53.24
2022-10-11T22:54:03.311Z,54.17
2022-10-11T22:56:31.885Z,54.22
2022-10-11T22:59:01.604Z,54.24
2022-10-11T23:01:30.427Z,54.21
2022-10-11T23:03:59.150Z,53.81
2022-10-11T23:06:27.481Z,53.23
2022-10-11T23:08:55.872Z,53.05
2022-10-11T23:11:24.558Z,53.83
2022-10-11T23:13:52.844Z,53.00
2022-10-11T23:16:22.532Z,53.10
2022-10-11T23:18:53.414Z,52.79
2022-10-11T23:21:21.595Z,53.46
2022-10-11T23:23:52.803Z,53.51
2022-10-11T23:26:22.196Z,52.98
2022-10-11T23:28:55.223Z,53.26
2022-10-11T23:31:25.141Z,53.41
2022-10-11T23:33:54.603Z,53.55
2022-10-11T23:36:24.721Z,53.35
2022-10-11T23:38:54.809Z,53.21
2022-10-11T23:41:23.693Z,52.97
2022-10-11T23:43:52.077Z,52.63
2022-10-11T23:46:20.707Z,53.37
2022-10-11T23:48:50.481Z,53.45
2022-10-11T23:51:18.674Z,53.12
2022-10-11T23:53:47.352Z,53.48
2022-10-11T23:56:15.541Z,53.21
2022-10-11T23:58:43.826Z,53.46
